| time (UTC) | temp F | wind direction | speed MPH | gust MPH | rain 1hr in | rain 24hr in | rain mn in | humidity % | barometer mb |
| 20260510031525 | 71 | 76 | 3.0 | 6.0 | 0.06 | 0.11 | 0.11 | 98 | 1011.4 |
| 20260510030024 | 71 | 207 | 7.0 | 17.0 | 0.08 | 0.11 | 0.11 | 98 | 1011.0 |
| 20260510024522 | 71 | 117 | 12.0 | 18.0 | 0.09 | 0.11 | 0.11 | 98 | 1010.4 |
| 20260510023019 | 71 | 164 | 7.0 | 11.0 | 0.05 | 0.07 | 0.07 | 98 | 1011.5 |
| 20260510021519 | 71 | 120 | 8.0 | 15.0 | 0.03 | 0.05 | 0.05 | 98 | 1011.5 |
| 20260510020017 | 71 | 131 | 7.0 | 9.0 | 0.00 | 0.02 | 0.02 | 97 | 1011.7 |
| 20260510014516 | 71 | 149 | 0.0 | 4.0 | 0.00 | 0.02 | 0.02 | 97 | 1012.2 |
| 20260510013012 | 71 | 110 | 0.0 | 4.0 | 0.00 | 0.02 | 0.02 | 96 | 1011.4 |
| 20260510011520 | 72 | 114 | 1.0 | 3.0 | 0.00 | 0.02 | 0.02 | 96 | 1011.2 |
| 20260510010009 | 72 | 89 | 0.0 | 2.0 | 0.00 | 0.02 | 0.02 | 95 | 1011.0 |
| 20260510004511 | 73 | 56 | 1.0 | 6.0 | 0.00 | 0.02 | 0.02 | 94 | 1011.0 |
| 20260510003008 | 73 | 32 | 3.0 | 7.0 | 0.00 | 0.02 | 0.02 | 94 | 1011.0 |
| 20260510001511 | 73 | 53 | 1.0 | 6.0 | 0.00 | 0.02 | 0.02 | 94 | 1010.5 |
| 20260510000012 | 74 | 91 | 3.0 | 7.0 | 0.00 | 0.02 | 0.02 | 92 | 1010.0 |
| 20260509234505 | 75 | 94 | 2.0 | 10.0 | 0.00 | 0.02 | 0.02 | 93 | 1009.9 |
| 20260509233004 | 74 | 145 | 1.0 | 5.0 | 0.00 | 0.02 | 0.02 | 94 | 1009.8 |
| 20260509231504 | 74 | 67 | 0.0 | 6.0 | 0.00 | 0.02 | 0.02 | 94 | 1009.6 |
| 20260509230008 | 74 | 43 | 3.0 | 7.0 | 0.00 | 0.02 | 0.02 | 93 | 1009.9 |
| 20260509224505 | 74 | 134 | 2.0 | 6.0 | 0.00 | 0.03 | 0.02 | 93 | 1009.8 |
| 20260509223004 | 75 | 133 | 1.0 | 9.0 | 0.00 | 0.03 | 0.02 | 93 | 1009.9 |
| 20260509221501 | 76 | 62 | 2.0 | 10.0 | 0.00 | 0.03 | 0.02 | 92 | 1009.3 |
| 20260509220001 | 75 | 70 | 4.0 | 10.0 | 0.00 | 0.03 | 0.02 | 94 | 1009.2 |
| 20260509214501 | 74 | 30 | 3.0 | 10.0 | 0.00 | 0.03 | 0.02 | 94 | 1009.2 |
| 20260509213101 | 74 | 118 | 2.0 | 8.0 | 0.00 | 0.03 | 0.02 | 96 | 1009.1 |
| 20260509213001 | 73 | 108 | 2.0 | 8.0 | 0.00 | 0.03 | 0.02 | 96 | 1009.1 |
| 20260509211602 | 72 | 70 | 2.0 | 11.0 | 0.00 | 0.03 | 0.02 | 97 | 1008.8 |
| 20260509210108 | 72 | 60 | 4.0 | 12.0 | 0.00 | 0.03 | 0.02 | 96 | 1008.7 |
| 20260509204600 | 71 | 43 | 7.0 | 14.0 | 0.00 | 0.25 | 0.02 | 96 | 1008.9 |
| 20260509203058 | 71 | 34 | 6.0 | 12.0 | 0.00 | 0.25 | 0.02 | 96 | 1009.5 |
| 20260509201603 | 72 | 106 | 2.0 | 5.0 | 0.01 | 0.25 | 0.02 | 96 | 1010.1 |
| 20260509200106 | 71 | 58 | 0.0 | 6.0 | 0.02 | 0.25 | 0.02 | 96 | 1010.0 |
| 20260509194554 | 71 | 52 | 2.0 | 10.0 | 0.02 | 0.26 | 0.02 | 96 | 1009.9 |
| 20260509193056 | 71 | 86 | 2.0 | 8.0 | 0.02 | 0.26 | 0.02 | 95 | 1009.8 |
| 20260509191552 | 72 | 62 | 3.0 | 8.0 | 0.01 | 0.25 | 0.01 | 94 | 1010.2 |
| 20260509190051 | 73 | 54 | 5.0 | 10.0 | 0.00 | 0.24 | 0.00 | 94 | 1010.1 |
| 20260509184600 | 73 | 63 | 3.0 | 11.0 | 0.00 | 0.25 | 0.00 | 92 | 1009.8 |
| 20260509183050 | 73 | 31 | 4.0 | 13.0 | 0.00 | 0.25 | 0.00 | 92 | 1009.9 |
| 20260509181607 | 74 | 61 | 6.0 | 13.0 | 0.00 | 0.25 | 0.00 | 93 | 1010.0 |
| 20260509180049 | 76 | 49 | 6.0 | 10.0 | 0.00 | 0.25 | 0.00 | 93 | 1009.8 |
| 20260509174548 | 77 | 53 | 3.0 | 9.0 | 0.00 | 0.70 | 0.00 | 93 | 1010.0 |
| 20260509173059 | 78 | 73 | 2.0 | 7.0 | 0.00 | 0.70 | 0.00 | 94 | 1010.1 |
| 20260509171546 | 78 | 63 | 2.0 | 6.0 | 0.00 | 0.70 | 0.00 | 94 | 1010.4 |
| 20260509170044 | 77 | 66 | 4.0 | 7.0 | 0.00 | 0.70 | 0.00 | 96 | 1010.1 |
| 20260509164543 | 77 | 61 | 3.0 | 7.0 | 0.00 | 0.82 | 0.00 | 97 | 1010.4 |
| 20260509163043 | 78 | 78 | 0.0 | 3.0 | 0.00 | 0.82 | 0.00 | 99 | 1010.7 |
| 20260509161506 | 77 | 136 | 2.0 | 4.0 | 0.00 | 0.82 | 0.00 | 100 | 1010.7 |
| 20260509160050 | 77 | 122 | 0.0 | 4.0 | 0.00 | 0.82 | 0.00 | 100 | 1010.8 |
| 20260509154527 | 75 | 72 | 0.0 | 4.0 | 0.00 | 0.89 | 0.00 | 100 | 1010.7 |
| 20260509153018 | 75 | 110 | 0.0 | 3.0 | 0.00 | 0.89 | 0.00 | 100 | 1010.3 |
| 20260509151613 | 74 | 59 | 0.0 | 0.0 | 0.00 | 0.89 | 0.00 | 100 | 1010.2 |
| 20260509150042 | 74 | 110 | 0.0 | 2.0 | 0.00 | 0.89 | 0.00 | 100 | 1010.6 |
| 20260509144601 | 74 | 115 | 0.0 | 4.0 | 0.00 | 1.01 | 0.00 | 100 | 1010.3 |
| 20260509144526 | 74 | 70 | 0.0 | 5.0 | 0.00 | 1.01 | 0.00 | 100 | 1010.3 |
| 20260509143028 | 73 | 20 | 1.0 | 5.0 | 0.00 | 1.01 | 0.00 | 100 | 1010.1 |
| 20260509141530 | 73 | 76 | 2.0 | 4.0 | 0.00 | 1.01 | 0.00 | 100 | 1010.2 |
| 20260509140022 | 73 | 65 | 2.0 | 5.0 | 0.00 | 1.01 | 0.00 | 100 | 1010.1 |
| 20260509134537 | 73 | 64 | 1.0 | 3.0 | 0.00 | 1.03 | 0.00 | 100 | 1010.0 |
| 20260509133021 | 73 | 27 | 2.0 | 5.0 | 0.00 | 1.03 | 0.00 | 100 | 1010.3 |
| 20260509131517 | 73 | 39 | 1.0 | 4.0 | 0.00 | 1.03 | 0.00 | 100 | 1010.5 |
| 20260509130015 | 73 | 69 | 1.0 | 4.0 | 0.00 | 1.03 | 0.00 | 100 | 1010.4 |
| 20260509124510 | 73 | 53 | 0.0 | 2.0 | 0.00 | 1.03 | 0.00 | 100 | 1010.1 |
| 20260509123007 | 73 | 72 | 0.0 | 3.0 | 0.00 | 1.03 | 0.00 | 100 | 1010.0 |
| 20260509121505 | 73 | 117 | 0.0 | 0.0 | 0.00 | 1.03 | 0.00 | 100 | 1009.8 |
| 20260509120114 | 73 | 117 | 0.0 | 0.0 | 0.00 | 1.03 | 0.00 | 100 | 1010.0 |
| 20260509114600 | 72 | 124 | 0.0 | 0.0 | 0.00 | 1.03 | 0.00 | 100 | 1009.8 |
| 20260509113050 | 72 | 120 | 0.0 | 0.0 | 0.00 | 1.03 | 0.00 | 100 | 1009.9 |
| 20260509111558 | 72 | 120 | 0.0 | 0.0 | 0.00 | 1.03 | 0.00 | 100 | 1009.9 |
| 20260509111502 | 72 | 120 | 0.0 | 0.0 | 0.00 | 1.03 | 0.00 | 100 | 1009.9 |
| 20260509110043 | 72 | 120 | 0.0 | 0.0 | 0.00 | 1.03 | 0.00 | 100 | 1009.7 |
| 20260509110008 | 72 | 120 | 0.0 | 0.0 | 0.00 | 1.03 | 0.00 | 100 | 1009.7 |
| 20260509104506 | 72 | 120 | 0.0 | 0.0 | 0.00 | 1.03 | 0.00 | 100 | 1009.3 |
| 20260509103112 | 72 | 120 | 0.0 | 0.0 | 0.00 | 1.03 | 0.00 | 100 | 1009.3 |
| 20260509101509 | 71 | 120 | 0.0 | 0.0 | 0.00 | 1.03 | 0.00 | 100 | 1009.0 |
| 20260509100059 | 71 | 120 | 0.0 | 0.0 | 0.00 | 1.03 | 0.00 | 100 | 1008.6 |
| 20260509100010 | 71 | 120 | 0.0 | 0.0 | 0.00 | 1.03 | 0.00 | 100 | 1008.5 |
| 20260509094526 | 71 | 120 | 0.0 | 0.0 | 0.00 | 1.03 | 0.00 | 100 | 1008.4 |
| 20260509093010 | 71 | 102 | 0.0 | 0.0 | 0.00 | 1.03 | 0.00 | 100 | 1008.7 |
| 20260509091544 | 70 | 91 | 0.0 | 0.0 | 0.00 | 1.03 | 0.00 | 100 | 1008.6 |
| 20260509090050 | 70 | 91 | 0.0 | 0.0 | 0.00 | 1.03 | 0.00 | 100 | 1008.6 |
| 20260509090012 | 70 | 91 | 0.0 | 0.0 | 0.00 | 1.03 | 0.00 | 100 | 1008.6 |
| 20260509083007 | 70 | 91 | 0.0 | 0.0 | 0.00 | 1.03 | 0.00 | 100 | 1009.2 |
| 20260509081542 | 70 | 91 | 0.0 | 0.0 | 0.00 | 1.03 | 0.00 | 100 | 1009.2 |
| 20260509080038 | 69 | 84 | 0.0 | 0.0 | 0.00 | 1.03 | 0.00 | 100 | 1009.1 |
| 20260509074545 | 70 | 84 | 0.0 | 0.0 | 0.00 | 1.03 | 0.00 | 100 | 1009.1 |
| 20260509073144 | 70 | 113 | 0.0 | 0.0 | 0.00 | 1.03 | 0.00 | 100 | 1009.0 |
| 20260509071542 | 70 | 113 | 0.0 | 0.0 | 0.00 | 1.03 | 0.00 | 100 | 1009.1 |
| 20260509070013 | 70 | 130 | 0.0 | 0.0 | 0.00 | 1.03 | 0.00 | 100 | 1009.3 |
| 20260509064501 | 70 | 123 | 2.0 | 4.0 | 0.00 | 1.03 | 0.00 | 100 | 1009.5 |
| 20260509063030 | 69 | 117 | 0.0 | 4.0 | 0.00 | 1.03 | 0.00 | 100 | 1009.7 |
| 20260509061525 | 69 | 116 | 0.0 | 2.0 | 0.00 | 1.03 | 0.00 | 100 | 1010.0 |
| 20260509060024 | 69 | 117 | 0.0 | 0.0 | 0.00 | 1.03 | 0.00 | 100 | 1010.2 |
| 20260509054524 | 69 | 122 | 0.0 | 0.0 | 0.00 | 1.03 | 0.00 | 100 | 1010.4 |
| 20260509053023 | 69 | 50 | 0.0 | 0.0 | 0.00 | 1.03 | 0.00 | 100 | 1010.6 |
| 20260509051521 | 69 | 63 | 0.0 | 0.0 | 0.00 | 1.03 | 0.00 | 100 | 1010.3 |
| 20260509050017 | 70 | 117 | 0.0 | 0.0 | 0.00 | 1.03 | 0.00 | 100 | 1010.6 |
| 20260509044517 | 70 | 114 | 0.0 | 0.0 | 0.00 | 1.03 | 1.03 | 100 | 1010.7 |
| 20260509043017 | 70 | 92 | 0.0 | 0.0 | 0.00 | 1.03 | 1.03 | 100 | 1010.5 |
| 20260509041516 | 70 | 50 | 0.0 | 3.0 | 0.00 | 1.03 | 1.03 | 100 | 1010.9 |
| 20260509040016 | 70 | 61 | 0.0 | 3.0 | 0.00 | 1.03 | 1.03 | 100 | 1010.8 |
| 20260509034515 | 70 | 50 | 0.0 | 0.0 | 0.00 | 1.03 | 1.03 | 100 | 1010.8 |
| 20260509033015 | 70 | 101 | 0.0 | 0.0 | 0.00 | 1.03 | 1.03 | 100 | 1011.1 |